createdAt,value
2019-04-20T00:00:39.744Z,18.80
2019-04-20T00:03:01.869Z,18.70
2019-04-20T00:05:31.098Z,18.80
2019-04-20T00:08:03.231Z,18.80
2019-04-20T00:10:42.507Z,18.80
2019-04-20T00:13:11.433Z,18.80
2019-04-20T00:15:34.568Z,18.80
2019-04-20T00:18:06.627Z,18.80
2019-04-20T00:20:37.165Z,18.70
2019-04-20T00:23:19.763Z,18.80
2019-04-20T00:26:11.084Z,18.80
2019-04-20T00:28:52.236Z,18.70
2019-04-20T00:31:22.218Z,18.70
2019-04-20T00:33:46.896Z,18.70
2019-04-20T00:36:05.443Z,18.70
2019-04-20T00:38:42.582Z,18.70
2019-04-20T00:41:10.907Z,18.70
2019-04-20T00:43:40.519Z,18.70
2019-04-20T00:46:18.250Z,18.60
2019-04-20T00:48:48.579Z,18.70
2019-04-20T00:51:35.206Z,18.70
2019-04-20T00:53:49.097Z,18.70
2019-04-20T00:56:16.185Z,18.70
2019-04-20T00:59:02.708Z,18.70
2019-04-20T01:01:40.719Z,18.70
2019-04-20T01:04:07.109Z,18.70
2019-04-20T01:06:50.063Z,18.60
2019-04-20T01:09:18.303Z,18.70
2019-04-20T01:11:48.578Z,18.70
2019-04-20T01:14:27.311Z,18.70
2019-04-20T01:16:57.954Z,18.70
2019-04-20T01:19:20.652Z,18.70
2019-04-20T01:21:57.876Z,18.70
2019-04-20T01:24:29.151Z,18.70
2019-04-20T01:26:55.998Z,18.70
2019-04-20T01:29:34.776Z,18.60
2019-04-20T01:32:07.772Z,18.70
2019-04-20T01:34:40.430Z,18.70
2019-04-20T01:37:11.679Z,18.70
2019-04-20T01:39:35.285Z,18.60
2019-04-20T01:41:58.238Z,18.70
2019-04-20T01:44:33.240Z,18.70
2019-04-20T01:47:01.267Z,18.60
2019-04-20T01:49:32.438Z,18.60
2019-04-20T01:52:10.529Z,18.60
2019-04-20T01:54:52.821Z,18.60
2019-04-20T01:57:26.134Z,18.50
2019-04-20T02:00:09.185Z,18.60
2019-04-20T02:02:47.390Z,18.50
2019-04-20T02:05:20.645Z,18.60
2019-04-20T02:07:48.668Z,18.60
2019-04-20T02:10:18.280Z,18.60
2019-04-20T02:12:51.754Z,18.60
2019-04-20T02:15:28.115Z,18.60
2019-04-20T02:18:04.773Z,18.50
2019-04-20T02:20:37.844Z,18.60
2019-04-20T02:23:04.120Z,18.50
2019-04-20T02:25:21.218Z,18.50
2019-04-20T02:27:55.547Z,18.50
2019-04-20T02:30:59.958Z,18.50
2019-04-20T02:33:37.877Z,18.50
2019-04-20T02:39:45.448Z,18.50
2019-04-20T02:41:57.413Z,18.50
2019-04-20T02:44:36.158Z,18.50
2019-04-20T02:47:07.533Z,18.50
2019-04-20T02:49:36.274Z,18.50
2019-04-20T02:52:03.005Z,18.50
2019-04-20T02:54:26.174Z,18.40
2019-04-20T02:57:04.647Z,18.50
2019-04-20T02:59:54.267Z,18.50
2019-04-20T03:01:53.213Z,18.50
2019-04-20T03:04:10.736Z,18.50
2019-04-20T03:06:52.393Z,18.60
2019-04-20T03:09:29.875Z,18.50
2019-04-20T03:12:04.485Z,18.40
2019-04-20T03:14:29.298Z,18.40
2019-04-20T03:17:08.588Z,18.50
2019-04-20T03:19:23.675Z,18.50
2019-04-20T03:22:05.055Z,18.50
2019-04-20T03:24:39.078Z,18.40
2019-04-20T03:27:07.545Z,18.50
2019-04-20T03:30:03.650Z,18.50
2019-04-20T03:35:18.265Z,18.40
2019-04-20T03:37:54.722Z,18.40
2019-04-20T03:40:11.246Z,18.40
2019-04-20T03:42:26.607Z,18.40
2019-04-20T03:45:01.760Z,18.40
2019-04-20T03:47:38.453Z,18.40
2019-04-20T03:50:18.532Z,18.40
2019-04-20T03:53:09.840Z,18.40
2019-04-20T03:55:57.725Z,18.40
2019-04-20T03:58:47.166Z,18.40
2019-04-20T04:02:06.262Z,18.30
2019-04-20T04:04:38.873Z,18.40
2019-04-20T04:06:53.909Z,18.40
2019-04-20T04:09:29.132Z,18.40
2019-04-20T04:12:04.903Z,18.40
2019-04-20T04:14:21.790Z,18.40
2019-04-20T04:16:55.675Z,18.30
2019-04-20T04:19:28.479Z,18.30
2019-04-20T04:22:11.050Z,18.40
2019-04-20T04:24:35.814Z,18.40
2019-04-20T04:27:05.870Z,18.30
2019-04-20T04:29:46.809Z,18.40
2019-04-20T04:32:23.615Z,18.40
2019-04-20T04:34:44.665Z,18.30
2019-04-20T04:37:16.494Z,18.30
2019-04-20T04:39:49.261Z,18.30
2019-04-20T04:42:22.610Z,18.30
2019-04-20T04:44:43.286Z,18.30
2019-04-20T04:47:05.158Z,18.30
2019-04-20T04:49:38.160Z,18.30
2019-04-20T04:52:08.139Z,18.30
2019-04-20T04:54:44.513Z,18.30
2019-04-20T04:57:05.287Z,18.40
2019-04-20T04:59:34.447Z,18.30
2019-04-20T05:02:03.548Z,18.30
2019-04-20T05:05:20.521Z,18.40
2019-04-20T05:07:46.460Z,18.30
2019-04-20T05:10:01.921Z,18.30
2019-04-20T05:12:33.556Z,18.30
2019-04-20T05:15:29.720Z,18.30
2019-04-20T05:18:16.168Z,18.30
2019-04-20T05:20:46.827Z,18.30
2019-04-20T05:23:28.303Z,18.30
2019-04-20T05:26:29.905Z,18.30
2019-04-20T05:28:53.230Z,18.30
2019-04-20T05:31:16.705Z,18.30
2019-04-20T05:34:08.615Z,18.40
2019-04-20T05:36:39.261Z,18.40
2019-04-20T05:39:19.512Z,18.50
2019-04-20T05:41:38.392Z,18.50
2019-04-20T05:44:12.870Z,18.50
2019-04-20T05:46:59.520Z,18.60
2019-04-20T05:49:24.352Z,18.60
2019-04-20T05:52:18.551Z,18.70
2019-04-20T05:54:25.532Z,18.70
2019-04-20T05:57:00.579Z,18.90
2019-04-20T05:59:24.248Z,18.90
2019-04-20T06:04:42.646Z,18.90
2019-04-20T06:07:04.041Z,19.00
2019-04-20T06:09:46.291Z,19.00
2019-04-20T06:14:45.040Z,19.10
2019-04-20T06:17:43.330Z,19.10
2019-04-20T06:20:02.298Z,19.10
2019-04-20T06:22:42.872Z,19.10
2019-04-20T06:25:33.499Z,19.10
2019-04-20T06:27:49.939Z,19.10
2019-04-20T06:30:11.195Z,19.10
2019-04-20T06:33:34.233Z,19.30
2019-04-20T06:36:07.507Z,19.20
2019-04-20T06:38:46.619Z,19.20
2019-04-20T06:41:06.304Z,19.20
2019-04-20T06:43:34.844Z,19.20
2019-04-20T06:46:07.100Z,19.20
2019-04-20T06:48:35.414Z,19.30
2019-04-20T06:50:55.518Z,19.30
2019-04-20T06:53:43.610Z,19.40
2019-04-20T06:56:27.681Z,19.40
2019-04-20T06:58:49.935Z,19.40
2019-04-20T07:01:18.026Z,19.50
2019-04-20T07:04:02.321Z,19.50
2019-04-20T07:06:43.928Z,19.60
2019-04-20T07:09:02.491Z,19.60
2019-04-20T07:11:23.889Z,19.70
2019-04-20T07:13:43.488Z,19.70
2019-04-20T07:16:49.668Z,19.80
2019-04-20T07:19:27.278Z,19.70
2019-04-20T07:22:23.096Z,19.80
2019-04-20T07:24:46.084Z,19.80
2019-04-20T07:27:12.250Z,19.70
2019-04-20T07:29:48.003Z,19.80
2019-04-20T07:32:06.317Z,19.90
2019-04-20T07:34:48.791Z,19.90
2019-04-20T07:40:07.503Z,19.80
2019-04-20T07:45:13.106Z,19.90
2019-04-20T07:47:40.611Z,20.00
2019-04-20T07:50:05.049Z,19.90
2019-04-20T07:52:24.360Z,20.00
2019-04-20T07:55:26.374Z,20.00
2019-04-20T07:57:34.160Z,19.90
2019-04-20T08:00:06.317Z,20.00
2019-04-20T08:02:57.482Z,20.00
2019-04-20T08:05:31.225Z,19.90
2019-04-20T08:07:57.596Z,20.00
2019-04-20T08:10:34.157Z,20.00
2019-04-20T08:13:21.498Z,20.10
2019-04-20T08:15:58.361Z,20.10
2019-04-20T08:18:13.685Z,20.00
2019-04-20T08:20:39.363Z,20.00
2019-04-20T08:23:12.653Z,20.00
2019-04-20T08:25:38.830Z,20.10
2019-04-20T08:27:59.131Z,20.10
2019-04-20T08:30:53.788Z,20.10
2019-04-20T08:33:28.790Z,20.10
2019-04-20T08:36:09.280Z,20.20
2019-04-20T08:39:06.834Z,20.20
2019-04-20T08:40:59.526Z,20.20
2019-04-20T08:43:43.619Z,20.30
2019-04-20T08:46:05.278Z,20.30
2019-04-20T08:48:33.242Z,20.20
2019-04-20T08:51:07.547Z,20.20
2019-04-20T08:53:36.473Z,20.20
2019-04-20T08:56:00.039Z,20.30
2019-04-20T08:58:18.515Z,20.30
2019-04-20T09:00:53.610Z,20.30
2019-04-20T09:03:25.442Z,20.40
2019-04-20T09:06:01.050Z,20.30
2019-04-20T09:08:28.118Z,20.30
2019-04-20T09:11:09.709Z,20.40
2019-04-20T09:13:32.009Z,20.30
2019-04-20T09:15:55.649Z,20.40
2019-04-20T09:18:42.136Z,20.40
2019-04-20T09:21:08.505Z,20.40
2019-04-20T09:23:46.868Z,20.40
2019-04-20T09:26:25.060Z,20.40
2019-04-20T09:28:54.361Z,20.40
2019-04-20T09:31:35.451Z,20.40
2019-04-20T09:34:46.584Z,20.40
2019-04-20T09:37:44.700Z,20.50
2019-04-20T09:40:33.597Z,20.40
2019-04-20T09:43:00.252Z,20.40
2019-04-20T09:45:38.196Z,20.40
2019-04-20T09:48:11.556Z,20.50
2019-04-20T09:50:55.522Z,20.40
2019-04-20T09:53:19.766Z,20.40
2019-04-20T09:55:59.242Z,20.50
2019-04-20T09:58:18.057Z,20.40
2019-04-20T10:00:58.258Z,20.40
2019-04-20T10:03:13.949Z,20.40
2019-04-20T10:05:43.432Z,20.40
2019-04-20T10:08:13.688Z,20.40
2019-04-20T10:10:45.614Z,20.50
2019-04-20T10:13:15.407Z,20.50
2019-04-20T10:15:45.802Z,20.50
2019-04-20T10:18:15.188Z,20.50
2019-04-20T10:20:45.357Z,20.50
2019-04-20T10:23:14.595Z,20.50
2019-04-20T10:25:44.711Z,20.50
2019-04-20T10:28:14.104Z,20.50
2019-04-20T10:30:44.418Z,20.50
2019-04-20T10:33:13.885Z,20.50
2019-04-20T10:35:43.597Z,20.50
2019-04-20T10:38:23.297Z,20.50
2019-04-20T10:41:03.345Z,20.50
2019-04-20T10:43:23.969Z,20.50
2019-04-20T10:45:53.235Z,20.50
2019-04-20T10:48:23.540Z,20.60
2019-04-20T10:50:52.886Z,20.50
2019-04-20T10:53:22.143Z,20.50
2019-04-20T10:55:51.509Z,20.50
2019-04-20T10:58:21.880Z,20.50
2019-04-20T11:00:51.891Z,20.50
2019-04-20T11:03:22.714Z,20.50
2019-04-20T11:05:52.988Z,20.40
2019-04-20T11:08:22.438Z,20.60
2019-04-20T11:11:03.456Z,20.70
2019-04-20T11:13:23.519Z,20.70
2019-04-20T11:15:53.110Z,21.00
2019-04-20T11:18:22.775Z,21.00
2019-04-20T11:20:53.194Z,21.20
2019-04-20T11:23:24.459Z,21.20
2019-04-20T11:25:53.769Z,21.10
2019-04-20T11:28:23.981Z,21.20
2019-04-20T11:30:54.260Z,21.30
2019-04-20T11:33:24.528Z,21.40
2019-04-20T11:35:54.967Z,21.50
2019-04-20T11:38:24.282Z,21.50
2019-04-20T11:41:04.178Z,21.50
2019-04-20T11:43:24.381Z,21.50
2019-04-20T11:45:54.416Z,21.50
2019-04-20T11:48:23.663Z,21.60
2019-04-20T11:50:53.576Z,21.50
2019-04-20T11:53:26.302Z,21.60
2019-04-20T11:55:54.304Z,21.60
2019-04-20T11:58:23.854Z,21.60
2019-04-20T12:01:03.214Z,21.60
2019-04-20T12:03:33.321Z,21.70
2019-04-20T12:06:01.170Z,21.70
2019-04-20T12:08:29.258Z,21.70
2019-04-20T12:11:03.083Z,21.70
2019-04-20T12:13:30.975Z,21.80
2019-04-20T12:16:01.557Z,21.70
2019-04-20T12:18:31.695Z,21.80
2019-04-20T12:21:02.922Z,21.70
2019-04-20T12:23:32.260Z,21.70
2019-04-20T12:26:01.998Z,21.80
2019-04-20T12:28:31.600Z,21.80
2019-04-20T12:31:04.068Z,21.70
2019-04-20T12:33:32.577Z,21.80
2019-04-20T12:36:02.507Z,21.80
2019-04-20T12:38:32.894Z,21.80
2019-04-20T12:41:04.845Z,21.80
2019-04-20T12:43:33.957Z,21.80
2019-04-20T12:46:03.316Z,21.80
2019-04-20T12:48:33.624Z,21.80
2019-04-20T12:51:03.733Z,21.80
2019-04-20T12:53:33.258Z,21.80
2019-04-20T12:56:04.391Z,21.90
2019-04-20T12:58:34.631Z,21.80
2019-04-20T13:01:04.670Z,21.80
2019-04-20T13:03:35.162Z,21.90
2019-04-20T13:06:05.754Z,21.80
2019-04-20T13:08:40.253Z,21.90
2019-04-20T13:11:12.892Z,21.90
2019-04-20T13:13:50.340Z,21.90
2019-04-20T13:16:32.402Z,21.90
2019-04-20T13:19:05.682Z,21.80
2019-04-20T13:21:36.909Z,21.90
2019-04-20T13:24:07.024Z,21.90
2019-04-20T13:26:37.267Z,21.80
2019-04-20T13:29:06.868Z,21.60
2019-04-20T13:31:36.332Z,21.60
2019-04-20T13:34:07.503Z,21.60
2019-04-20T13:36:38.074Z,21.70
2019-04-20T13:39:08.288Z,21.60
2019-04-20T13:41:38.333Z,22.00
2019-04-20T13:44:08.709Z,21.80
2019-04-20T13:46:38.921Z,21.80
2019-04-20T13:49:09.302Z,21.80
2019-04-20T13:51:39.088Z,21.90
2019-04-20T13:54:15.010Z,22.00
2019-04-20T13:56:39.733Z,22.00
2019-04-20T13:59:22.137Z,22.00
2019-04-20T14:02:06.750Z,22.00
2019-04-20T14:04:57.045Z,22.20
2019-04-20T14:07:27.053Z,22.10
2019-04-20T14:09:57.474Z,22.10
2019-04-20T14:12:36.675Z,22.10
2019-04-20T14:15:01.483Z,22.00
2019-04-20T14:17:32.999Z,22.00
2019-04-20T14:20:07.370Z,22.10
2019-04-20T14:22:33.371Z,22.10
2019-04-20T14:25:03.027Z,22.20
2019-04-20T14:27:32.945Z,22.10
2019-04-20T14:30:03.479Z,22.10
2019-04-20T14:32:32.890Z,22.00
2019-04-20T14:35:03.133Z,22.10
2019-04-20T14:37:32.992Z,22.10
2019-04-20T14:40:02.255Z,22.10
2019-04-20T14:42:41.834Z,22.20
2019-04-20T14:45:02.370Z,22.20
2019-04-20T14:47:31.923Z,22.10
2019-04-20T14:50:03.102Z,22.10
2019-04-20T14:52:33.427Z,22.10
2019-04-20T14:55:03.745Z,22.30
2019-04-20T14:57:32.997Z,22.50
2019-04-20T15:00:09.603Z,22.50
2019-04-20T15:02:40.296Z,22.50
2019-04-20T15:05:10.832Z,22.40
2019-04-20T15:07:40.740Z,22.40
2019-04-20T15:10:10.986Z,22.30
2019-04-20T15:12:49.046Z,22.30
2019-04-20T15:15:12.478Z,22.20
2019-04-20T15:17:57.645Z,22.00
2019-04-20T15:20:43.674Z,22.00
2019-04-20T15:23:23.637Z,22.00
2019-04-20T15:25:53.141Z,21.90
2019-04-20T15:28:22.258Z,21.80
2019-04-20T15:30:52.096Z,21.90
2019-04-20T15:33:21.450Z,21.70
2019-04-20T15:35:50.517Z,21.80
2019-04-20T15:38:20.873Z,21.70
2019-04-20T15:40:51.103Z,21.60
2019-04-20T15:43:24.036Z,21.70
2019-04-20T15:45:51.602Z,21.60
2019-04-20T15:48:22.003Z,21.50
2019-04-20T15:50:51.913Z,21.40
2019-04-20T15:53:21.892Z,21.40
2019-04-20T15:55:52.385Z,21.30
2019-04-20T15:58:22.740Z,21.20
2019-04-20T16:00:52.759Z,21.10
2019-04-20T16:03:27.526Z,21.10
2019-04-20T16:05:59.048Z,21.00
2019-04-20T16:08:34.607Z,21.10
2019-04-20T16:11:04.883Z,21.00
2019-04-20T16:13:39.540Z,21.00
2019-04-20T16:16:05.992Z,20.90
2019-04-20T16:18:36.841Z,20.90
2019-04-20T16:21:13.295Z,20.90
2019-04-20T16:24:06.672Z,20.90
2019-04-20T16:27:05.283Z,20.80
2019-04-20T16:29:35.586Z,20.80
2019-04-20T16:32:05.018Z,20.80
2019-04-20T16:34:36.698Z,20.80
2019-04-20T16:37:06.396Z,20.80
2019-04-20T16:39:36.591Z,20.80
2019-04-20T16:42:06.650Z,20.70
2019-04-20T16:44:35.814Z,20.70
2019-04-20T16:47:06.075Z,20.70
2019-04-20T16:49:36.870Z,20.80
2019-04-20T16:52:07.310Z,20.70
2019-04-20T16:54:37.553Z,20.70
2019-04-20T16:57:10.602Z,20.60
2019-04-20T16:59:40.185Z,20.60
2019-04-20T17:02:08.824Z,20.60
2019-04-20T17:04:38.321Z,20.60
2019-04-20T17:07:26.912Z,20.60
2019-04-20T17:09:56.261Z,20.60
2019-04-20T17:12:25.801Z,20.60
2019-04-20T17:14:55.909Z,20.60
2019-04-20T17:17:25.352Z,20.60
2019-04-20T17:19:55.484Z,20.60
2019-04-20T17:22:25.542Z,20.60
2019-04-20T17:24:55.680Z,20.60
2019-04-20T17:27:46.939Z,20.60
2019-04-20T17:30:52.888Z,20.60
2019-04-20T17:33:46.522Z,20.50
2019-04-20T17:36:14.523Z,20.50
2019-04-20T17:38:41.745Z,20.60
2019-04-20T17:41:23.738Z,20.50
2019-04-20T17:43:57.722Z,20.50
2019-04-20T17:46:19.549Z,20.50
2019-04-20T17:48:51.369Z,20.50
2019-04-20T17:51:34.404Z,20.50
2019-04-20T17:54:06.877Z,20.50
2019-04-20T17:56:40.371Z,20.50
2019-04-20T17:59:10.365Z,20.40
2019-04-20T18:02:13.224Z,20.50
2019-04-20T18:05:12.660Z,20.40
2019-04-20T18:08:02.617Z,20.30
2019-04-20T18:10:11.473Z,20.40
2019-04-20T18:12:32.779Z,20.40
2019-04-20T18:15:12.167Z,20.40
2019-04-20T18:18:07.278Z,20.40
2019-04-20T18:20:30.523Z,20.30
2019-04-20T18:23:00.499Z,20.30
2019-04-20T18:26:02.805Z,20.30
2019-04-20T18:28:14.587Z,20.30
2019-04-20T18:30:48.493Z,20.30
2019-04-20T18:33:11.434Z,20.30
2019-04-20T18:35:47.431Z,20.30
2019-04-20T18:38:18.859Z,20.30
2019-04-20T18:40:56.027Z,20.30
2019-04-20T18:43:22.700Z,20.30
2019-04-20T18:46:08.081Z,20.30
2019-04-20T18:48:43.409Z,20.30
2019-04-20T18:50:54.625Z,20.20
2019-04-20T18:53:29.460Z,20.30
2019-04-20T18:55:57.573Z,20.30
2019-04-20T18:58:26.943Z,20.30
2019-04-20T19:00:57.196Z,20.20
2019-04-20T19:03:33.061Z,20.20
2019-04-20T19:05:57.955Z,20.20
2019-04-20T19:08:33.767Z,20.20
2019-04-20T19:11:04.148Z,20.20
2019-04-20T19:13:43.447Z,20.20
2019-04-20T19:16:50.836Z,20.20
2019-04-20T19:19:39.860Z,20.10
2019-04-20T19:22:06.011Z,20.20
2019-04-20T19:24:37.869Z,20.10
2019-04-20T19:27:10.665Z,20.10
2019-04-20T19:29:48.770Z,20.10
2019-04-20T19:32:23.795Z,20.10
2019-04-20T19:34:50.768Z,20.10
2019-04-20T19:37:20.619Z,20.00
2019-04-20T19:39:54.656Z,20.20
2019-04-20T19:42:31.061Z,20.10
2019-04-20T19:44:58.016Z,20.10
2019-04-20T19:47:32.453Z,20.10
2019-04-20T19:50:10.903Z,20.10
2019-04-20T19:52:49.023Z,20.00
2019-04-20T19:55:07.072Z,20.00
2019-04-20T19:57:39.778Z,20.00
2019-04-20T19:59:54.295Z,20.00
2019-04-20T20:02:21.422Z,20.10
2019-04-20T20:04:55.922Z,20.00
2019-04-20T20:07:28.674Z,20.10
2019-04-20T20:09:56.627Z,20.10
2019-04-20T20:12:25.340Z,20.10
2019-04-20T20:14:55.387Z,20.10
2019-04-20T20:17:44.281Z,20.00
2019-04-20T20:20:21.557Z,20.00
2019-04-20T20:22:35.202Z,20.00
2019-04-20T20:24:59.000Z,20.00
2019-04-20T20:27:39.350Z,20.10
2019-04-20T20:30:11.999Z,20.00
2019-04-20T20:32:49.079Z,20.00
2019-04-20T20:35:10.024Z,20.00
2019-04-20T20:37:44.959Z,20.00
2019-04-20T20:40:15.791Z,20.00
2019-04-20T20:42:50.017Z,20.00
2019-04-20T20:45:16.063Z,20.00
2019-04-20T20:47:55.113Z,20.00
2019-04-20T20:50:31.983Z,20.00
2019-04-20T20:52:49.635Z,20.00
2019-04-20T20:55:21.874Z,20.00
2019-04-20T20:57:50.862Z,20.00
2019-04-20T21:00:22.660Z,19.90
2019-04-20T21:02:50.547Z,19.90
2019-04-20T21:05:13.636Z,20.00
2019-04-20T21:07:42.970Z,19.90
2019-04-20T21:10:15.420Z,19.90
2019-04-20T21:12:52.272Z,19.90
2019-04-20T21:15:20.333Z,19.90
2019-04-20T21:18:08.457Z,19.90
2019-04-20T21:20:38.125Z,19.90
2019-04-20T21:23:03.972Z,19.90
2019-04-20T21:25:26.379Z,19.90
2019-04-20T21:27:52.877Z,19.90
2019-04-20T21:30:30.816Z,19.90
2019-04-20T21:32:57.314Z,19.80
2019-04-20T21:35:23.942Z,19.90
2019-04-20T21:38:00.398Z,19.80
2019-04-20T21:40:32.370Z,19.90
2019-04-20T21:42:59.256Z,19.90
2019-04-20T21:45:30.531Z,19.80
2019-04-20T21:47:56.627Z,19.80
2019-04-20T21:50:44.097Z,19.90
2019-04-20T21:53:04.552Z,19.80
2019-04-20T21:55:27.917Z,19.80
2019-04-20T21:58:00.469Z,19.80
2019-04-20T22:01:05.114Z,19.80
2019-04-20T22:03:24.746Z,19.70
2019-04-20T22:06:08.780Z,19.70
2019-04-20T22:08:40.464Z,19.80
2019-04-20T22:11:08.802Z,19.70
2019-04-20T22:13:41.667Z,19.70
2019-04-20T22:16:11.075Z,19.70
2019-04-20T22:18:54.117Z,19.70
2019-04-20T22:21:21.715Z,19.70
2019-04-20T22:23:54.952Z,19.70
2019-04-20T22:26:25.379Z,19.70
2019-04-20T22:28:44.483Z,19.70
2019-04-20T22:31:14.138Z,19.70
2019-04-20T22:33:45.417Z,19.70
2019-04-20T22:36:14.951Z,19.70
2019-04-20T22:39:05.371Z,19.70
2019-04-20T22:41:36.780Z,19.70
2019-04-20T22:44:11.582Z,19.70
2019-04-20T22:46:39.038Z,19.70
2019-04-20T22:49:26.826Z,19.70
2019-04-20T22:51:49.049Z,19.70
2019-04-20T22:54:27.828Z,19.70
2019-04-20T22:56:51.383Z,19.70
2019-04-20T22:59:16.451Z,19.60
2019-04-20T23:01:48.499Z,19.60
2019-04-20T23:04:12.852Z,19.70
2019-04-20T23:06:47.729Z,19.60
2019-04-20T23:09:14.963Z,19.60
2019-04-20T23:11:45.078Z,19.60
2019-04-20T23:14:14.423Z,19.60
2019-04-20T23:16:48.655Z,19.60
2019-04-20T23:19:14.437Z,19.60
2019-04-20T23:21:49.248Z,19.60
2019-04-20T23:24:15.359Z,19.60
2019-04-20T23:26:47.183Z,19.60
2019-04-20T23:29:17.393Z,19.60
2019-04-20T23:31:55.538Z,19.60
2019-04-20T23:34:21.649Z,19.60
2019-04-20T23:36:50.586Z,19.60
2019-04-20T23:39:23.340Z,19.60
2019-04-20T23:41:57.019Z,19.60
2019-04-20T23:44:35.695Z,19.60
2019-04-20T23:47:18.471Z,19.60
2019-04-20T23:50:06.095Z,19.50
2019-04-20T23:52:44.391Z,19.60
2019-04-20T23:54:59.105Z,19.50
2019-04-20T23:57:23.914Z,19.60
2019-04-20T23:59:53.789Z,19.60
